sensor_id;sensor_type;location;lat;lon;timestamp;pressure;altitude;pressure_sealevel;temperature;humidity
25947;BME280;13745;51.470;9.894;2022-09-09T00:00:12;98858.47;;;16.46;69.02
25947;BME280;13745;51.470;9.894;2022-09-09T00:03:04;98842.41;;;16.44;68.90
25947;BME280;13745;51.470;9.894;2022-09-09T00:05:59;98842.50;;;16.48;68.87
25947;BME280;13745;51.470;9.894;2022-09-09T00:08:59;98841.47;;;16.52;68.88
25947;BME280;13745;51.470;9.894;2022-09-09T00:11:49;98842.72;;;16.55;68.78
25947;BME280;13745;51.470;9.894;2022-09-09T00:14:43;98832.69;;;16.58;68.82
25947;BME280;13745;51.470;9.894;2022-09-09T00:17:35;98839.50;;;16.64;68.97
25947;BME280;13745;51.470;9.894;2022-09-09T00:20:29;98847.47;;;16.69;68.76
25947;BME280;13745;51.470;9.894;2022-09-09T00:23:22;98843.34;;;16.75;68.85
25947;BME280;13745;51.470;9.894;2022-09-09T00:26:14;98843.09;;;16.80;68.60
25947;BME280;13745;51.470;9.894;2022-09-09T00:29:12;98833.84;;;16.84;68.59
25947;BME280;13745;51.470;9.894;2022-09-09T00:32:11;98840.56;;;16.87;68.53
25947;BME280;13745;51.470;9.894;2022-09-09T00:35:03;98827.78;;;16.91;68.18
25947;BME280;13745;51.470;9.894;2022-09-09T00:37:51;98831.84;;;16.97;68.50
25947;BME280;13745;51.470;9.894;2022-09-09T00:40:45;98836.97;;;16.98;68.32
25947;BME280;13745;51.470;9.894;2022-09-09T00:43:36;98840.97;;;17.01;68.33
25947;BME280;13745;51.470;9.894;2022-09-09T00:46:47;98833.22;;;17.03;68.32
25947;BME280;13745;51.470;9.894;2022-09-09T00:49:45;98831.31;;;17.03;68.38
25947;BME280;13745;51.470;9.894;2022-09-09T00:52:41;98832.91;;;17.04;68.20
25947;BME280;13745;51.470;9.894;2022-09-09T00:55:35;98840.31;;;17.04;68.35
25947;BME280;13745;51.470;9.894;2022-09-09T00:58:25;98838.69;;;17.03;68.32
25947;BME280;13745;51.470;9.894;2022-09-09T01:01:13;98833.09;;;16.99;68.22
25947;BME280;13745;51.470;9.894;2022-09-09T01:03:59;98838.13;;;16.97;68.45
25947;BME280;13745;51.470;9.894;2022-09-09T01:06:53;98842.34;;;16.95;68.36
25947;BME280;13745;51.470;9.894;2022-09-09T01:09:51;98844.22;;;16.91;68.60
25947;BME280;13745;51.470;9.894;2022-09-09T01:12:40;98840.69;;;16.90;68.45
25947;BME280;13745;51.470;9.894;2022-09-09T01:15:31;98843.72;;;16.89;68.58
25947;BME280;13745;51.470;9.894;2022-09-09T01:18:20;98846.03;;;16.87;68.38
25947;BME280;13745;51.470;9.894;2022-09-09T01:21:16;98847.16;;;16.86;68.56
25947;BME280;13745;51.470;9.894;2022-09-09T01:24:25;98842.41;;;16.83;68.62
25947;BME280;13745;51.470;9.894;2022-09-09T01:27:33;98848.13;;;16.78;68.39
25947;BME280;13745;51.470;9.894;2022-09-09T01:30:20;98838.66;;;16.76;68.77
25947;BME280;13745;51.470;9.894;2022-09-09T01:33:12;98837.84;;;16.75;68.56
25947;BME280;13745;51.470;9.894;2022-09-09T01:36:01;98843.25;;;16.72;68.76
25947;BME280;13745;51.470;9.894;2022-09-09T01:38:56;98843.59;;;16.70;68.69
25947;BME280;13745;51.470;9.894;2022-09-09T01:41:43;98846.31;;;16.70;68.82
25947;BME280;13745;51.470;9.894;2022-09-09T01:44:34;98854.16;;;16.72;68.84
25947;BME280;13745;51.470;9.894;2022-09-09T01:47:20;98848.78;;;16.75;68.78
25947;BME280;13745;51.470;9.894;2022-09-09T01:50:25;98841.75;;;16.74;68.96
25947;BME280;13745;51.470;9.894;2022-09-09T01:53:12;98842.19;;;16.76;68.77
25947;BME280;13745;51.470;9.894;2022-09-09T01:56:07;98845.41;;;16.78;68.86
25947;BME280;13745;51.470;9.894;2022-09-09T01:59:06;98849.72;;;16.79;68.66
25947;BME280;13745;51.470;9.894;2022-09-09T02:02:04;98838.31;;;16.77;68.80
25947;BME280;13745;51.470;9.894;2022-09-09T02:04:55;98839.94;;;16.78;68.58
25947;BME280;13745;51.470;9.894;2022-09-09T02:07:47;98844.47;;;16.74;68.68
25947;BME280;13745;51.470;9.894;2022-09-09T02:10:55;98830.63;;;16.67;68.53
25947;BME280;13745;51.470;9.894;2022-09-09T02:13:57;98834.03;;;16.64;68.71
25947;BME280;13745;51.470;9.894;2022-09-09T02:16:49;98839.03;;;16.62;68.66
25947;BME280;13745;51.470;9.894;2022-09-09T02:19:44;98842.94;;;16.61;68.76
25947;BME280;13745;51.470;9.894;2022-09-09T02:22:45;98841.44;;;16.64;68.83
25947;BME280;13745;51.470;9.894;2022-09-09T02:25:36;98844.63;;;16.66;68.69
25947;BME280;13745;51.470;9.894;2022-09-09T02:28:36;98848.63;;;16.68;68.79
25947;BME280;13745;51.470;9.894;2022-09-09T02:31:24;98839.97;;;16.66;68.50
25947;BME280;13745;51.470;9.894;2022-09-09T02:34:18;98831.28;;;16.64;68.74
25947;BME280;13745;51.470;9.894;2022-09-09T02:37:08;98839.84;;;16.63;68.88
25947;BME280;13745;51.470;9.894;2022-09-09T02:39:56;98834.50;;;16.66;68.84
25947;BME280;13745;51.470;9.894;2022-09-09T02:42:45;98844.72;;;16.69;68.84
25947;BME280;13745;51.470;9.894;2022-09-09T02:45:36;98842.69;;;16.66;69.17
25947;BME280;13745;51.470;9.894;2022-09-09T02:48:30;98842.22;;;16.64;69.27
25947;BME280;13745;51.470;9.894;2022-09-09T02:51:26;98842.22;;;16.64;69.16
25947;BME280;13745;51.470;9.894;2022-09-09T02:54:22;98836.44;;;16.66;69.29
25947;BME280;13745;51.470;9.894;2022-09-09T02:57:10;98831.75;;;16.66;69.22
25947;BME280;13745;51.470;9.894;2022-09-09T02:59:58;98839.97;;;16.66;69.42
25947;BME280;13745;51.470;9.894;2022-09-09T03:02:45;98839.97;;;16.66;69.39
25947;BME280;13745;51.470;9.894;2022-09-09T03:05:31;98844.72;;;16.69;69.37
25947;BME280;13745;51.470;9.894;2022-09-09T03:08:18;98839.34;;;16.73;69.43
25947;BME280;13745;51.470;9.894;2022-09-09T03:11:05;98839.44;;;16.76;69.33
25947;BME280;13745;51.470;9.894;2022-09-09T03:13:54;98833.31;;;16.79;69.34
25947;BME280;13745;51.470;9.894;2022-09-09T03:16:41;98839.75;;;16.86;69.13
25947;BME280;13745;51.470;9.894;2022-09-09T03:19:29;98840.31;;;16.92;69.04
25947;BME280;13745;51.470;9.894;2022-09-09T03:22:16;98839.19;;;16.93;69.04
25947;BME280;13745;51.470;9.894;2022-09-09T03:25:03;98839.72;;;16.98;68.94
25947;BME280;13745;51.470;9.894;2022-09-09T03:27:55;98830.47;;;17.03;68.98
25947;BME280;13745;51.470;9.894;2022-09-09T03:30:42;98836.41;;;17.04;69.10
25947;BME280;13745;51.470;9.894;2022-09-09T03:33:28;98841.19;;;17.07;68.98
25947;BME280;13745;51.470;9.894;2022-09-09T03:36:16;98841.19;;;17.07;68.85
25947;BME280;13745;51.470;9.894;2022-09-09T03:39:02;98831.84;;;17.08;68.84
25947;BME280;13745;51.470;9.894;2022-09-09T03:41:49;98840.41;;;17.07;68.88
25947;BME280;13745;51.470;9.894;2022-09-09T03:44:37;98837.22;;;17.05;68.96
25947;BME280;13745;51.470;9.894;2022-09-09T03:47:24;98834.84;;;17.04;69.09
25947;BME280;13745;51.470;9.894;2022-09-09T03:50:15;98824.09;;;16.99;69.20
25947;BME280;13745;51.470;9.894;2022-09-09T03:53:04;98823.22;;;16.95;69.05
25947;BME280;13745;51.470;9.894;2022-09-09T03:55:52;98817.31;;;16.93;69.26
25947;BME280;13745;51.470;9.894;2022-09-09T03:58:40;98819.59;;;16.91;69.24
25947;BME280;13745;51.470;9.894;2022-09-09T04:01:28;98818.69;;;16.87;69.06
25947;BME280;13745;51.470;9.894;2022-09-09T04:04:14;98816.28;;;16.85;69.14
25947;BME280;13745;51.470;9.894;2022-09-09T04:06:59;98818.59;;;16.83;68.99
25947;BME280;13745;51.470;9.894;2022-09-09T04:09:45;98815.41;;;16.81;69.13
25947;BME280;13745;51.470;9.894;2022-09-09T04:12:32;98827.84;;;16.79;69.00
25947;BME280;13745;51.470;9.894;2022-09-09T04:15:19;98815.19;;;16.75;69.25
25947;BME280;13745;51.470;9.894;2022-09-09T04:18:07;98815.44;;;16.70;69.29
25947;BME280;13745;51.470;9.894;2022-09-09T04:20:53;98818.53;;;16.68;69.21
25947;BME280;13745;51.470;9.894;2022-09-09T04:23:43;98822.75;;;16.66;69.57
25947;BME280;13745;51.470;9.894;2022-09-09T04:26:29;98824.22;;;16.63;69.52
25947;BME280;13745;51.470;9.894;2022-09-09T04:29:15;98814.69;;;16.58;69.53
25947;BME280;13745;51.470;9.894;2022-09-09T04:32:01;98816.97;;;16.56;69.65
25947;BME280;13745;51.470;9.894;2022-09-09T04:34:49;98818.56;;;16.57;69.87
25947;BME280;13745;51.470;9.894;2022-09-09T04:37:35;98822.44;;;16.56;69.76
25947;BME280;13745;51.470;9.894;2022-09-09T04:40:21;98820.16;;;16.58;69.62
25947;BME280;13745;51.470;9.894;2022-09-09T04:43:08;98825.97;;;16.56;69.57
25947;BME280;13745;51.470;9.894;2022-09-09T04:45:54;98825.63;;;16.58;69.79
25947;BME280;13745;51.470;9.894;2022-09-09T04:48:43;98834.19;;;16.56;69.65
25947;BME280;13745;51.470;9.894;2022-09-09T04:51:31;98832.59;;;16.55;69.70
25947;BME280;13745;51.470;9.894;2022-09-09T04:54:17;98834.53;;;16.55;69.60
25947;BME280;13745;51.470;9.894;2022-09-09T04:57:04;98838.16;;;16.58;69.82
25947;BME280;13745;51.470;9.894;2022-09-09T04:59:50;98832.00;;;16.61;69.58
25947;BME280;13745;51.470;9.894;2022-09-09T05:02:37;98828.09;;;16.62;69.61
25947;BME280;13745;51.470;9.894;2022-09-09T05:05:23;98840.63;;;16.63;69.55
25947;BME280;13745;51.470;9.894;2022-09-09T05:08:11;98844.97;;;16.64;69.82
25947;BME280;13745;51.470;9.894;2022-09-09T05:10:57;98843.50;;;16.67;69.68
25947;BME280;13745;51.470;9.894;2022-09-09T05:13:44;98850.66;;;16.71;69.81
25947;BME280;13745;51.470;9.894;2022-09-09T05:16:30;98847.31;;;16.78;69.54
25947;BME280;13745;51.470;9.894;2022-09-09T05:19:16;98851.50;;;16.87;69.39
25947;BME280;13745;51.470;9.894;2022-09-09T05:22:06;98857.97;;;16.94;69.34
25947;BME280;13745;51.470;9.894;2022-09-09T05:25:00;98844.03;;;16.99;69.27
25947;BME280;13745;51.470;9.894;2022-09-09T05:27:46;98851.69;;;17.05;69.18
25947;BME280;13745;51.470;9.894;2022-09-09T05:30:33;98850.53;;;17.06;69.09
25947;BME280;13745;51.470;9.894;2022-09-09T05:33:21;98861.03;;;17.04;69.27
25947;BME280;13745;51.470;9.894;2022-09-09T05:36:09;98859.97;;;17.09;69.19
25947;BME280;13745;51.470;9.894;2022-09-09T05:38:58;98861.66;;;17.13;69.13
25947;BME280;13745;51.470;9.894;2022-09-09T05:41:46;98849.78;;;17.21;69.04
25947;BME280;13745;51.470;9.894;2022-09-09T05:44:32;98855.47;;;17.28;68.87
25947;BME280;13745;51.470;9.894;2022-09-09T05:47:19;98850.88;;;17.32;68.70
25947;BME280;13745;51.470;9.894;2022-09-09T05:50:05;98856.44;;;17.35;68.72
25947;BME280;13745;51.470;9.894;2022-09-09T05:52:54;98858.56;;;17.42;68.60
25947;BME280;13745;51.470;9.894;2022-09-09T05:55:40;98861.91;;;17.50;68.39
25947;BME280;13745;51.470;9.894;2022-09-09T05:58:27;98859.81;;;17.59;68.18
25947;BME280;13745;51.470;9.894;2022-09-09T06:01:14;98863.88;;;17.65;68.11
25947;BME280;13745;51.470;9.894;2022-09-09T06:04:01;98864.84;;;17.72;67.87
25947;BME280;13745;51.470;9.894;2022-09-09T06:06:49;98870.84;;;17.78;67.83
25947;BME280;13745;51.470;9.894;2022-09-09T06:09:36;98880.34;;;17.80;67.89
25947;BME280;13745;51.470;9.894;2022-09-09T06:12:22;98876.81;;;17.80;67.70
25947;BME280;13745;51.470;9.894;2022-09-09T06:15:10;98885.09;;;17.83;67.76
25947;BME280;13745;51.470;9.894;2022-09-09T06:17:55;98884.94;;;17.92;67.72
25947;BME280;13745;51.470;9.894;2022-09-09T06:20:41;98886.28;;;17.97;67.63
25947;BME280;13745;51.470;9.894;2022-09-09T06:23:27;98885.13;;;17.98;67.54
25947;BME280;13745;51.470;9.894;2022-09-09T06:26:15;98877.34;;;18.00;67.44
25947;BME280;13745;51.470;9.894;2022-09-09T06:29:03;98885.47;;;18.12;67.23
25947;BME280;13745;51.470;9.894;2022-09-09T06:31:51;98878.72;;;18.25;67.01
25947;BME280;13745;51.470;9.894;2022-09-09T06:34:42;98884.53;;;18.38;66.66
25947;BME280;13745;51.470;9.894;2022-09-09T06:37:28;98880.28;;;18.56;66.26
25947;BME280;13745;51.470;9.894;2022-09-09T06:40:14;98882.31;;;18.78;65.86
25947;BME280;13745;51.470;9.894;2022-09-09T06:43:00;98884.25;;;18.92;65.65
25947;BME280;13745;51.470;9.894;2022-09-09T06:46:00;98878.63;;;19.04;65.61
25947;BME280;13745;51.470;9.894;2022-09-09T06:48:47;98874.72;;;19.05;65.57
25947;BME280;13745;51.470;9.894;2022-09-09T06:51:35;98880.78;;;19.14;65.36
25947;BME280;13745;51.470;9.894;2022-09-09T06:54:24;98881.25;;;19.38;64.86
25947;BME280;13745;51.470;9.894;2022-09-09T06:57:10;98873.66;;;19.50;64.47
25947;BME280;13745;51.470;9.894;2022-09-09T06:59:56;98885.50;;;19.73;64.16
25947;BME280;13745;51.470;9.894;2022-09-09T07:02:43;98889.47;;;19.97;63.60
25947;BME280;13745;51.470;9.894;2022-09-09T07:05:32;98878.16;;;20.02;63.52
25947;BME280;13745;51.470;9.894;2022-09-09T07:08:18;98894.38;;;20.07;63.68
25947;BME280;13745;51.470;9.894;2022-09-09T07:11:05;98888.47;;;20.30;63.33
25947;BME280;13745;51.470;9.894;2022-09-09T07:13:54;98893.34;;;20.40;62.94
25947;BME280;13745;51.470;9.894;2022-09-09T07:16:41;98879.16;;;20.38;62.67
25947;BME280;13745;51.470;9.894;2022-09-09T07:19:28;98890.25;;;20.42;62.48
25947;BME280;13745;51.470;9.894;2022-09-09T07:22:15;98885.59;;;20.45;62.45
25947;BME280;13745;51.470;9.894;2022-09-09T07:25:02;98876.00;;;20.62;62.12
25947;BME280;13745;51.470;9.894;2022-09-09T07:27:48;98889.34;;;20.85;61.94
25947;BME280;13745;51.470;9.894;2022-09-09T07:30:34;98880.50;;;21.02;61.67
25947;BME280;13745;51.470;9.894;2022-09-09T07:33:19;98887.53;;;21.25;61.43
25947;BME280;13745;51.470;9.894;2022-09-09T07:36:07;98892.91;;;21.47;61.26
25947;BME280;13745;51.470;9.894;2022-09-09T07:38:57;98899.06;;;21.69;60.79
25947;BME280;13745;51.470;9.894;2022-09-09T07:41:46;98896.91;;;21.88;60.31
25947;BME280;13745;51.470;9.894;2022-09-09T07:44:34;98894.41;;;22.12;59.78
25947;BME280;13745;51.470;9.894;2022-09-09T07:47:28;98894.13;;;22.24;59.44
25947;BME280;13745;51.470;9.894;2022-09-09T07:50:13;98895.69;;;22.25;59.23
25947;BME280;13745;51.470;9.894;2022-09-09T07:53:00;98904.47;;;22.37;58.84
25947;BME280;13745;51.470;9.894;2022-09-09T07:55:48;98903.06;;;22.57;58.51
25947;BME280;13745;51.470;9.894;2022-09-09T07:58:35;98901.88;;;22.58;57.91
25947;BME280;13745;51.470;9.894;2022-09-09T08:01:23;98897.50;;;22.53;57.77
25947;BME280;13745;51.470;9.894;2022-09-09T08:04:11;98905.78;;;22.53;57.57
25947;BME280;13745;51.470;9.894;2022-09-09T08:07:00;98907.81;;;22.63;57.27
25947;BME280;13745;51.470;9.894;2022-09-09T08:09:50;98904.19;;;23.05;56.42
25947;BME280;13745;51.470;9.894;2022-09-09T08:12:41;98893.97;;;23.16;56.21
25947;BME280;13745;51.470;9.894;2022-09-09T08:15:27;98904.38;;;23.39;55.86
25947;BME280;13745;51.470;9.894;2022-09-09T08:18:16;98911.59;;;23.68;55.46
25947;BME280;13745;51.470;9.894;2022-09-09T08:21:08;98903.75;;;23.97;54.41
25947;BME280;13745;51.470;9.894;2022-09-09T08:23:57;98914.09;;;24.07;54.07
25947;BME280;13745;51.470;9.894;2022-09-09T08:26:46;98908.88;;;23.88;54.68
25947;BME280;13745;51.470;9.894;2022-09-09T08:29:35;98909.63;;;23.72;54.85
25947;BME280;13745;51.470;9.894;2022-09-09T08:32:22;98912.78;;;23.67;54.46
25947;BME280;13745;51.470;9.894;2022-09-09T08:35:08;98917.88;;;23.65;54.15
25947;BME280;13745;51.470;9.894;2022-09-09T08:37:54;98910.91;;;24.08;53.52
25947;BME280;13745;51.470;9.894;2022-09-09T08:40:44;98903.41;;;24.23;53.23
25947;BME280;13745;51.470;9.894;2022-09-09T08:43:34;98902.97;;;24.00;53.86
25947;BME280;13745;51.470;9.894;2022-09-09T08:46:26;98904.00;;;23.51;54.08
25947;BME280;13745;51.470;9.894;2022-09-09T08:49:30;98912.44;;;23.02;54.95
25947;BME280;13745;51.470;9.894;2022-09-09T08:52:27;98920.41;;;22.57;55.88
25947;BME280;13745;51.470;9.894;2022-09-09T08:55:22;98933.22;;;22.33;56.25
25947;BME280;13745;51.470;9.894;2022-09-09T08:58:14;98932.63;;;22.10;56.56
25947;BME280;13745;51.470;9.894;2022-09-09T09:01:21;98932.41;;;21.93;56.86
25947;BME280;13745;51.470;9.894;2022-09-09T09:04:26;98931.41;;;21.76;56.96
25947;BME280;13745;51.470;9.894;2022-09-09T09:07:23;98940.84;;;21.71;56.94
25947;BME280;13745;51.470;9.894;2022-09-09T09:10:21;98929.03;;;22.06;56.23
25947;BME280;13745;51.470;9.894;2022-09-09T09:13:13;98917.25;;;24.77;50.73
25947;BME280;13745;51.470;9.894;2022-09-09T09:16:06;98929.09;;;29.47;42.09
25947;BME280;13745;51.470;9.894;2022-09-09T09:18:56;98944.59;;;35.01;34.30
25947;BME280;13745;51.470;9.894;2022-09-09T09:21:48;98924.38;;;38.61;29.48
25947;BME280;13745;51.470;9.894;2022-09-09T09:24:45;98921.16;;;41.21;26.94
25947;BME280;13745;51.470;9.894;2022-09-09T09:27:40;98930.38;;;42.57;25.17
25947;BME280;13745;51.470;9.894;2022-09-09T09:30:29;98930.91;;;42.83;26.65
25947;BME280;13745;51.470;9.894;2022-09-09T09:33:25;98922.31;;;43.26;24.61
25947;BME280;13745;51.470;9.894;2022-09-09T09:36:12;98929.59;;;39.16;28.21
25947;BME280;13745;51.470;9.894;2022-09-09T09:39:02;98919.78;;;38.63;28.39
25947;BME280;13745;51.470;9.894;2022-09-09T09:41:51;98917.69;;;42.21;23.94
25947;BME280;13745;51.470;9.894;2022-09-09T09:44:39;98923.53;;;43.41;22.72
25947;BME280;13745;51.470;9.894;2022-09-09T09:47:30;98922.56;;;42.09;23.65
25947;BME280;13745;51.470;9.894;2022-09-09T09:50:25;98914.47;;;41.92;23.62
25947;BME280;13745;51.470;9.894;2022-09-09T09:53:20;98909.41;;;37.89;27.57
25947;BME280;13745;51.470;9.894;2022-09-09T09:56:10;98905.94;;;35.01;31.26
25947;BME280;13745;51.470;9.894;2022-09-09T09:58:58;98917.59;;;34.91;30.99
25947;BME280;13745;51.470;9.894;2022-09-09T10:01:51;98909.78;;;36.27;28.92
25947;BME280;13745;51.470;9.894;2022-09-09T10:04:37;98906.78;;;38.43;26.10
25947;BME280;13745;51.470;9.894;2022-09-09T10:07:23;98899.19;;;38.06;26.49
25947;BME280;13745;51.470;9.894;2022-09-09T10:10:13;98904.63;;;40.53;23.97
25947;BME280;13745;51.470;9.894;2022-09-09T10:13:04;98903.19;;;38.28;25.78
25947;BME280;13745;51.470;9.894;2022-09-09T10:16:01;98899.53;;;38.56;25.70
25947;BME280;13745;51.470;9.894;2022-09-09T10:19:00;98890.47;;;34.67;29.53
25947;BME280;13745;51.470;9.894;2022-09-09T10:21:55;98886.72;;;32.23;32.65
25947;BME280;13745;51.470;9.894;2022-09-09T10:24:53;98886.53;;;30.62;34.39
25947;BME280;13745;51.470;9.894;2022-09-09T10:27:51;98879.69;;;29.44;35.95
25947;BME280;13745;51.470;9.894;2022-09-09T10:30:47;98884.09;;;28.80;36.83
25947;BME280;13745;51.470;9.894;2022-09-09T10:33:41;98887.94;;;30.70;34.09
25947;BME280;13745;51.470;9.894;2022-09-09T10:36:31;98879.31;;;32.41;31.76
25947;BME280;13745;51.470;9.894;2022-09-09T10:39:28;98875.75;;;31.36;33.06
25947;BME280;13745;51.470;9.894;2022-09-09T10:42:20;98877.63;;;35.22;28.50
25947;BME280;13745;51.470;9.894;2022-09-09T10:45:17;98880.44;;;35.31;28.25
25947;BME280;13745;51.470;9.894;2022-09-09T10:48:23;98880.91;;;38.98;24.75
25947;BME280;13745;51.470;9.894;2022-09-09T10:51:23;98882.16;;;42.16;21.85
25947;BME280;13745;51.470;9.894;2022-09-09T10:54:19;98872.16;;;40.95;22.54
25947;BME280;13745;51.470;9.894;2022-09-09T10:57:13;98881.03;;;40.12;23.40
25947;BME280;13745;51.470;9.894;2022-09-09T11:00:04;98879.13;;;37.67;25.80
25947;BME280;13745;51.470;9.894;2022-09-09T11:02:53;98859.06;;;36.09;26.87
25947;BME280;13745;51.470;9.894;2022-09-09T11:05:43;98864.19;;;39.83;22.62
25947;BME280;13745;51.470;9.894;2022-09-09T11:08:32;98864.47;;;43.76;19.59
25947;BME280;13745;51.470;9.894;2022-09-09T11:11:25;98859.56;;;45.62;18.10
25947;BME280;13745;51.470;9.894;2022-09-09T11:14:16;98858.50;;;45.23;18.15
25947;BME280;13745;51.470;9.894;2022-09-09T11:17:08;98858.50;;;43.18;19.61
25947;BME280;13745;51.470;9.894;2022-09-09T11:19:56;98862.69;;;44.47;18.23
25947;BME280;13745;51.470;9.894;2022-09-09T11:22:47;98860.88;;;46.34;16.78
25947;BME280;13745;51.470;9.894;2022-09-09T11:25:34;98859.25;;;43.80;19.57
25947;BME280;13745;51.470;9.894;2022-09-09T11:28:40;98848.63;;;41.00;20.79
25947;BME280;13745;51.470;9.894;2022-09-09T11:31:44;98851.94;;;38.12;22.64
25947;BME280;13745;51.470;9.894;2022-09-09T11:34:42;98833.28;;;39.66;20.97
25947;BME280;13745;51.470;9.894;2022-09-09T11:38:00;98849.25;;;42.69;18.48
25947;BME280;13745;51.470;9.894;2022-09-09T11:40:55;98855.47;;;41.98;18.71
25947;BME280;13745;51.470;9.894;2022-09-09T11:43:44;98838.00;;;40.24;19.91
25947;BME280;13745;51.470;9.894;2022-09-09T11:46:34;98843.06;;;38.67;20.89
25947;BME280;13745;51.470;9.894;2022-09-09T11:49:27;98836.06;;;37.35;22.01
25947;BME280;13745;51.470;9.894;2022-09-09T11:52:21;98837.88;;;36.14;23.09
25947;BME280;13745;51.470;9.894;2022-09-09T11:55:24;98837.28;;;34.51;24.77
25947;BME280;13745;51.470;9.894;2022-09-09T11:58:16;98815.78;;;33.68;25.76
25947;BME280;13745;51.470;9.894;2022-09-09T12:01:13;98831.41;;;33.27;25.83
25947;BME280;13745;51.470;9.894;2022-09-09T12:04:10;98815.72;;;32.84;26.13
25947;BME280;13745;51.470;9.894;2022-09-09T12:07:00;98807.97;;;32.30;26.88
25947;BME280;13745;51.470;9.894;2022-09-09T12:09:49;98814.00;;;31.92;27.39
25947;BME280;13745;51.470;9.894;2022-09-09T12:12:38;98815.81;;;31.33;28.21
25947;BME280;13745;51.470;9.894;2022-09-09T12:15:26;98821.34;;;31.09;28.42
25947;BME280;13745;51.470;9.894;2022-09-09T12:18:15;98832.94;;;30.64;28.79
25947;BME280;13745;51.470;9.894;2022-09-09T12:21:14;98824.19;;;29.65;29.84
25947;BME280;13745;51.470;9.894;2022-09-09T12:24:08;98830.59;;;29.08;30.55
25947;BME280;13745;51.470;9.894;2022-09-09T12:26:58;98826.94;;;28.69;31.21
25947;BME280;13745;51.470;9.894;2022-09-09T12:29:55;98826.78;;;28.34;31.60
25947;BME280;13745;51.470;9.894;2022-09-09T12:32:42;98823.44;;;27.94;32.13
25947;BME280;13745;51.470;9.894;2022-09-09T12:35:29;98826.34;;;27.58;32.71
25947;BME280;13745;51.470;9.894;2022-09-09T12:38:22;98820.50;;;27.17;33.18
25947;BME280;13745;51.470;9.894;2022-09-09T12:41:19;98836.13;;;26.71;33.82
25947;BME280;13745;51.470;9.894;2022-09-09T12:44:06;98829.25;;;26.39;34.26
25947;BME280;13745;51.470;9.894;2022-09-09T12:46:56;98827.78;;;26.28;34.53
25947;BME280;13745;51.470;9.894;2022-09-09T12:49:44;98827.03;;;26.24;34.72
25947;BME280;13745;51.470;9.894;2022-09-09T12:52:32;98833.75;;;26.30;34.71
25947;BME280;13745;51.470;9.894;2022-09-09T12:55:21;98823.00;;;26.32;34.61
25947;BME280;13745;51.470;9.894;2022-09-09T12:58:13;98827.78;;;26.28;34.88
25947;BME280;13745;51.470;9.894;2022-09-09T13:01:03;98829.97;;;26.07;35.11
25947;BME280;13745;51.470;9.894;2022-09-09T13:03:50;98832.91;;;25.80;35.63
25947;BME280;13745;51.470;9.894;2022-09-09T13:06:36;98831.44;;;25.62;35.95
25947;BME280;13745;51.470;9.894;2022-09-09T13:09:22;98843.06;;;25.36;36.74
25947;BME280;13745;51.470;9.894;2022-09-09T13:12:13;98856.66;;;25.00;37.32
25947;BME280;13745;51.470;9.894;2022-09-09T13:14:59;98840.09;;;24.83;37.38
25947;BME280;13745;51.470;9.894;2022-09-09T13:17:51;98829.41;;;24.74;37.60
25947;BME280;13745;51.470;9.894;2022-09-09T13:20:45;98827.81;;;24.77;37.68
25947;BME280;13745;51.470;9.894;2022-09-09T13:23:34;98827.03;;;24.70;38.03
25947;BME280;13745;51.470;9.894;2022-09-09T13:26:22;98823.09;;;24.71;38.13
25947;BME280;13745;51.470;9.894;2022-09-09T13:29:16;98817.53;;;24.74;38.61
25947;BME280;13745;51.470;9.894;2022-09-09T13:32:04;98812.78;;;24.74;38.83
25947;BME280;13745;51.470;9.894;2022-09-09T13:34:53;98813.59;;;24.58;39.17
25947;BME280;13745;51.470;9.894;2022-09-09T13:37:40;98821.50;;;24.52;39.45
25947;BME280;13745;51.470;9.894;2022-09-09T13:40:26;98829.81;;;24.59;39.29
25947;BME280;13745;51.470;9.894;2022-09-09T13:43:18;98823.09;;;24.71;39.00
25947;BME280;13745;51.470;9.894;2022-09-09T13:46:25;98822.25;;;24.87;38.30
25947;BME280;13745;51.470;9.894;2022-09-09T13:49:20;98808.72;;;25.10;37.94
25947;BME280;13745;51.470;9.894;2022-09-09T13:52:10;98811.00;;;25.35;37.68
25947;BME280;13745;51.470;9.894;2022-09-09T13:54:59;98805.34;;;25.49;37.56
25947;BME280;13745;51.470;9.894;2022-09-09T13:57:56;98814.03;;;25.58;37.55
25947;BME280;13745;51.470;9.894;2022-09-09T14:00:42;98805.25;;;25.69;37.54
25947;BME280;13745;51.470;9.894;2022-09-09T14:03:28;98807.91;;;25.83;37.29
25947;BME280;13745;51.470;9.894;2022-09-09T14:06:14;98812.63;;;25.86;36.98
25947;BME280;13745;51.470;9.894;2022-09-09T14:09:00;98813.75;;;25.99;36.92
25947;BME280;13745;51.470;9.894;2022-09-09T14:11:47;98804.31;;;25.86;36.92
25947;BME280;13745;51.470;9.894;2022-09-09T14:14:33;98815.53;;;25.65;37.21
25947;BME280;13745;51.470;9.894;2022-09-09T14:17:19;98808.13;;;25.49;37.50
25947;BME280;13745;51.470;9.894;2022-09-09T14:20:06;98814.91;;;25.41;37.87
25947;BME280;13745;51.470;9.894;2022-09-09T14:22:53;98816.91;;;25.37;37.77
25947;BME280;13745;51.470;9.894;2022-09-09T14:25:40;98809.38;;;25.34;38.00
25947;BME280;13745;51.470;9.894;2022-09-09T14:28:27;98799.06;;;25.41;37.95
25947;BME280;13745;51.470;9.894;2022-09-09T14:31:13;98798.22;;;25.48;37.98
25947;BME280;13745;51.470;9.894;2022-09-09T14:34:01;98793.47;;;25.48;38.12
25947;BME280;13745;51.470;9.894;2022-09-09T14:36:47;98791.56;;;25.42;38.32
25947;BME280;13745;51.470;9.894;2022-09-09T14:39:32;98796.72;;;25.33;38.28
25947;BME280;13745;51.470;9.894;2022-09-09T14:42:18;98783.25;;;25.28;38.23
25947;BME280;13745;51.470;9.894;2022-09-09T14:45:06;98788.00;;;25.38;38.35
25947;BME280;13745;51.470;9.894;2022-09-09T14:47:52;98791.94;;;25.40;38.35
25947;BME280;13745;51.470;9.894;2022-09-09T14:50:38;98795.94;;;25.36;38.26
25947;BME280;13745;51.470;9.894;2022-09-09T14:53:24;98802.25;;;25.33;37.98
25947;BME280;13745;51.470;9.894;2022-09-09T14:56:13;98786.03;;;25.35;37.96
25947;BME280;13745;51.470;9.894;2022-09-09T14:58:59;98785.25;;;25.35;37.83
25947;BME280;13745;51.470;9.894;2022-09-09T15:01:47;98781.66;;;25.34;37.81